createdAt,value
2023-11-12T00:08:51.348Z,95508.23
2023-11-12T00:18:55.091Z,95513.85
2023-11-12T00:28:58.487Z,95519.70
2023-11-12T00:39:01.905Z,95529.05
2023-11-12T00:49:06.878Z,95534.42
2023-11-12T00:59:10.331Z,95547.09
2023-11-12T01:09:13.855Z,95549.79
2023-11-12T01:19:17.619Z,95553.58
2023-11-12T01:29:21.476Z,95558.13
2023-11-12T01:39:25.128Z,95561.78
2023-11-12T01:49:29.067Z,95567.86
2023-11-12T01:59:35.686Z,95573.52
2023-11-12T02:09:39.271Z,95572.38
2023-11-12T02:19:42.610Z,95573.66
2023-11-12T02:29:50.051Z,95581.64
2023-11-12T02:39:53.771Z,95587.73
2023-11-12T02:50:03.384Z,95589.08
2023-11-12T03:00:10.200Z,95592.91
2023-11-12T03:10:13.636Z,95601.30
2023-11-12T03:20:17.341Z,95604.65
2023-11-12T03:30:20.765Z,95609.02
2023-11-12T03:40:25.299Z,95624.11
2023-11-12T03:50:28.677Z,95625.20
2023-11-12T04:00:33.384Z,95622.08
2023-11-12T04:10:36.971Z,95631.38
2023-11-12T04:20:40.308Z,95638.46
2023-11-12T04:30:44.006Z,95643.89
2023-11-12T04:40:50.253Z,95652.83
2023-11-12T04:50:54.332Z,95665.35
2023-11-12T05:00:57.788Z,95679.72
2023-11-12T05:11:01.333Z,95691.09
2023-11-12T05:21:06.488Z,95695.55
2023-11-12T05:31:11.939Z,95709.61
2023-11-12T05:41:15.967Z,95717.91
2023-11-12T05:51:21.068Z,95723.42
2023-11-12T06:01:24.719Z,95731.64
2023-11-12T06:11:27.979Z,95743.14
2023-11-12T06:21:31.357Z,95760.45
2023-11-12T06:31:35.439Z,95766.03
2023-11-12T06:41:38.821Z,95778.45
2023-11-12T06:51:42.277Z,95792.17
2023-11-12T07:01:47.154Z,95802.20
2023-11-12T07:11:50.556Z,95811.91
2023-11-12T07:21:53.795Z,95816.55
2023-11-12T07:31:57.340Z,95826.44
2023-11-12T07:42:00.684Z,95831.68
2023-11-12T07:52:04.554Z,95840.92
2023-11-12T08:02:07.931Z,95851.96
2023-11-12T08:12:11.223Z,95862.56
2023-11-12T08:22:14.978Z,95871.77
2023-11-12T08:32:19.063Z,95879.27
2023-11-12T08:42:22.415Z,95891.09
2023-11-12T08:52:26.542Z,95906.52
2023-11-12T09:02:29.944Z,95915.63
2023-11-12T09:12:33.866Z,95919.69
2023-11-12T09:22:37.082Z,95932.55
2023-11-12T09:32:40.791Z,95944.20
2023-11-12T09:42:53.177Z,95947.38
2023-11-12T09:52:56.840Z,95960.39
2023-11-12T10:03:01.510Z,95968.70
2023-11-12T10:13:05.964Z,95970.50
2023-11-12T10:23:32.932Z,95973.16
2023-11-12T10:33:38.517Z,95976.28
2023-11-12T10:43:57.958Z,95974.44
2023-11-12T10:54:04.168Z,95979.84
2023-11-12T11:04:10.423Z,95981.58
2023-11-12T11:14:31.012Z,95990.27
2023-11-12T11:24:45.172Z,96000.95
2023-11-12T11:34:50.842Z,96002.67
2023-11-12T11:45:00.964Z,95999.08
2023-11-12T11:55:13.528Z,95993.52
2023-11-12T12:05:32.590Z,95993.27
2023-11-12T12:15:37.317Z,95991.08
2023-11-12T12:25:53.347Z,95983.52
2023-11-12T12:36:00.540Z,95989.82
2023-11-12T12:46:06.345Z,95990.83
2023-11-12T12:56:10.866Z,96001.16
2023-11-12T13:06:16.149Z,96009.45
2023-11-12T13:16:19.637Z,96013.54
2023-11-12T13:26:23.752Z,96022.48
2023-11-12T13:36:28.339Z,96027.55
2023-11-12T13:46:33.263Z,96036.74
2023-11-12T13:56:38.698Z,96050.92
2023-11-12T14:06:42.211Z,96055.41
2023-11-12T14:16:46.127Z,96062.63
2023-11-12T14:26:49.853Z,96071.83
2023-11-12T14:36:53.214Z,96078.40
2023-11-12T14:46:56.716Z,96094.40
2023-11-12T14:56:59.928Z,96098.77
2023-11-12T15:07:03.830Z,96117.52
2023-11-12T15:17:07.696Z,96124.38
2023-11-12T15:27:11.139Z,96133.52
2023-11-12T15:37:15.193Z,96144.50
2023-11-12T15:47:21.030Z,96144.44
2023-11-12T15:57:24.375Z,96145.36
2023-11-12T16:07:27.783Z,96141.15
2023-11-12T16:17:33.076Z,96139.76
2023-11-12T16:27:36.822Z,96141.27
2023-11-12T16:37:48.625Z,96152.42
2023-11-12T16:47:52.843Z,96158.39
2023-11-12T16:57:56.401Z,96170.79
2023-11-12T17:08:00.535Z,96176.56
2023-11-12T17:18:03.954Z,96183.01
2023-11-12T17:28:07.485Z,96186.48
2023-11-12T17:38:11.285Z,96199.48
2023-11-12T17:48:16.806Z,96208.55
2023-11-12T17:58:21.348Z,96214.95
2023-11-12T18:08:25.643Z,96218.98
2023-11-12T18:18:32.700Z,96231.02
2023-11-12T18:28:38.929Z,96236.81
2023-11-12T18:38:42.436Z,96246.20
2023-11-12T18:48:45.688Z,96246.38
2023-11-12T18:58:54.847Z,96240.63
2023-11-12T19:09:00.116Z,96236.84
2023-11-12T19:19:04.272Z,96253.57
2023-11-12T19:29:07.660Z,96268.83
2023-11-12T19:39:14.749Z,96277.08
2023-11-12T19:49:18.225Z,96285.39
2023-11-12T19:59:21.946Z,96293.20
2023-11-12T20:09:25.822Z,96297.25
2023-11-12T20:19:29.348Z,96299.19
2023-11-12T20:29:34.670Z,96300.95
2023-11-12T20:39:40.175Z,96309.00
2023-11-12T20:49:44.408Z,96316.90
2023-11-12T20:59:49.186Z,96316.15
2023-11-12T21:09:54.173Z,96330.58
2023-11-12T21:19:59.343Z,96330.75
2023-11-12T21:30:03.219Z,96324.54
2023-11-12T21:40:07.413Z,96329.52
2023-11-12T21:50:17.216Z,96325.22
2023-11-12T22:00:22.193Z,96326.43
2023-11-12T22:10:25.577Z,96336.60
2023-11-12T22:20:31.318Z,96344.09
2023-11-12T22:30:34.723Z,96351.54
2023-11-12T22:40:38.985Z,96362.04
2023-11-12T22:50:42.255Z,96366.16
2023-11-12T23:00:51.106Z,96371.23
2023-11-12T23:10:59.209Z,96373.33
2023-11-12T23:21:09.536Z,96380.43
2023-11-12T23:31:13.669Z,96379.23
2023-11-12T23:41:17.270Z,96380.59
2023-11-12T23:51:21.229Z,96374.64
